createdAt,value
2023-03-06T00:01:26.541Z,54
2023-03-06T00:02:56.923Z,54
2023-03-06T00:04:27.323Z,54
2023-03-06T00:05:57.975Z,54
2023-03-06T00:07:28.084Z,54
2023-03-06T00:08:58.493Z,54
2023-03-06T00:10:28.912Z,54
2023-03-06T00:12:31.279Z,54
2023-03-06T00:14:01.611Z,54
2023-03-06T00:15:31.989Z,54
2023-03-06T00:17:02.338Z,54
2023-03-06T00:18:32.667Z,54
2023-03-06T00:20:03.035Z,54
2023-03-06T00:21:33.422Z,54
2023-03-06T00:23:03.826Z,54
2023-03-06T00:24:34.364Z,54
2023-03-06T00:26:04.788Z,54
2023-03-06T00:27:35.289Z,54
2023-03-06T00:29:05.815Z,54
2023-03-06T00:30:36.174Z,54
2023-03-06T00:32:38.614Z,54
2023-03-06T00:34:08.899Z,54
2023-03-06T00:35:39.413Z,54
2023-03-06T00:37:41.686Z,55
2023-03-06T00:39:11.996Z,54
2023-03-06T00:40:42.363Z,55
2023-03-06T00:42:12.759Z,55
2023-03-06T00:43:43.178Z,55
2023-03-06T00:45:13.656Z,55
2023-03-06T00:47:16.119Z,54
2023-03-06T00:48:46.511Z,55
2023-03-06T00:50:16.809Z,55
2023-03-06T00:51:47.258Z,55
2023-03-06T00:53:17.740Z,55
2023-03-06T00:54:48.081Z,55
2023-03-06T00:56:19.926Z,55
2023-03-06T00:57:48.912Z,55
2023-03-06T00:59:19.348Z,55
2023-03-06T01:00:49.764Z,55
2023-03-06T01:02:20.214Z,55
2023-03-06T01:03:50.583Z,55
2023-03-06T01:05:21.051Z,55
2023-03-06T01:06:51.418Z,55
2023-03-06T01:08:21.707Z,55
2023-03-06T01:10:24.161Z,55
2023-03-06T01:11:54.511Z,55
2023-03-06T01:13:24.944Z,55
2023-03-06T01:14:55.287Z,55
2023-03-06T01:16:25.681Z,55
2023-03-06T01:17:56.089Z,55
2023-03-06T01:19:26.554Z,55
2023-03-06T01:21:29.119Z,55
2023-03-06T01:22:59.530Z,55
2023-03-06T01:24:29.972Z,55
2023-03-06T01:26:00.195Z,55
2023-03-06T01:27:30.541Z,55
2023-03-06T01:29:00.911Z,55
2023-03-06T01:30:31.331Z,55
2023-03-06T01:32:33.878Z,55
2023-03-06T01:34:04.184Z,55
2023-03-06T01:35:34.678Z,55
2023-03-06T01:37:37.125Z,55
2023-03-06T01:39:07.531Z,55
2023-03-06T01:40:37.842Z,55
2023-03-06T01:42:08.351Z,55
2023-03-06T01:43:38.784Z,55
2023-03-06T01:45:09.250Z,55
2023-03-06T01:46:39.729Z,55
2023-03-06T01:48:10.110Z,55
2023-03-06T01:49:40.393Z,55
2023-03-06T01:51:10.741Z,55
2023-03-06T01:52:41.057Z,55
2023-03-06T01:54:11.592Z,55
2023-03-06T01:56:13.797Z,55
2023-03-06T01:58:16.308Z,55
2023-03-06T02:00:18.753Z,55
2023-03-06T02:01:49.104Z,55
2023-03-06T02:03:19.549Z,55
2023-03-06T02:04:50.043Z,55
2023-03-06T02:06:20.283Z,55
2023-03-06T02:07:50.681Z,55
2023-03-06T02:09:21.142Z,55
2023-03-06T02:10:51.596Z,55
2023-03-06T02:12:22.080Z,55
2023-03-06T02:13:52.481Z,55
2023-03-06T02:15:22.953Z,55
2023-03-06T02:16:53.442Z,55
2023-03-06T02:18:23.704Z,55
2023-03-06T02:19:54.051Z,55
2023-03-06T02:21:24.520Z,55
2023-03-06T02:22:54.887Z,55
2023-03-06T02:24:25.213Z,55
2023-03-06T02:25:55.581Z,55
2023-03-06T02:27:25.932Z,55
2023-03-06T02:28:56.386Z,55
2023-03-06T02:30:26.825Z,55
2023-03-06T02:31:57.226Z,55
2023-03-06T02:33:27.643Z,55
2023-03-06T02:34:58.096Z,55
2023-03-06T02:36:28.497Z,55
2023-03-06T02:38:30.947Z,55
2023-03-06T02:40:01.435Z,55
2023-03-06T02:41:31.801Z,55
2023-03-06T02:43:02.212Z,55
2023-03-06T02:44:32.622Z,55
2023-03-06T02:46:02.989Z,55
2023-03-06T02:47:33.236Z,55
2023-03-06T02:49:03.740Z,55
2023-03-06T02:50:34.058Z,55
2023-03-06T02:52:04.385Z,55
2023-03-06T02:53:34.717Z,55
2023-03-06T02:55:05.240Z,55
2023-03-06T02:56:35.637Z,55
2023-03-06T02:58:06.073Z,55
2023-03-06T02:59:36.503Z,56
2023-03-06T03:01:06.909Z,55
2023-03-06T03:02:37.219Z,55
2023-03-06T03:04:07.699Z,56
2023-03-06T03:05:38.109Z,55
2023-03-06T03:07:08.384Z,55
2023-03-06T03:08:38.806Z,55
2023-03-06T03:10:09.265Z,55
2023-03-06T03:11:39.526Z,55
2023-03-06T03:13:09.852Z,55
2023-03-06T03:14:40.376Z,55
2023-03-06T03:16:10.672Z,55
2023-03-06T03:17:41.019Z,55
2023-03-06T03:19:11.466Z,55
2023-03-06T03:20:41.849Z,56
2023-03-06T03:22:12.221Z,56
2023-03-06T03:24:14.690Z,56
2023-03-06T03:25:45.100Z,55
2023-03-06T03:27:15.631Z,56
2023-03-06T03:28:46.021Z,56
2023-03-06T03:30:16.438Z,56
2023-03-06T03:31:46.950Z,56
2023-03-06T03:33:17.371Z,56
2023-03-06T03:34:47.819Z,56
2023-03-06T03:36:18.220Z,56
2023-03-06T03:37:48.466Z,56
2023-03-06T03:39:50.893Z,56
2023-03-06T03:41:21.338Z,56
2023-03-06T03:42:51.811Z,56
2023-03-06T03:44:22.121Z,56
2023-03-06T03:45:52.456Z,56
2023-03-06T03:47:22.710Z,56
2023-03-06T03:48:53.160Z,56
2023-03-06T03:50:23.599Z,56
2023-03-06T03:51:54.150Z,56
2023-03-06T03:53:24.450Z,56
2023-03-06T03:54:54.906Z,56
2023-03-06T03:56:25.326Z,56
2023-03-06T03:57:55.816Z,56
2023-03-06T03:59:26.223Z,56
2023-03-06T04:00:56.537Z,56
2023-03-06T04:02:26.899Z,56
2023-03-06T04:03:57.360Z,56
2023-03-06T04:05:27.740Z,56
2023-03-06T04:06:58.214Z,56
2023-03-06T04:09:00.497Z,56
2023-03-06T04:10:30.848Z,56
2023-03-06T04:12:01.339Z,56
2023-03-06T04:13:31.590Z,56
2023-03-06T04:15:02.154Z,56
2023-03-06T04:17:04.644Z,56
2023-03-06T04:18:35.120Z,56
2023-03-06T04:20:05.481Z,56
2023-03-06T04:21:35.915Z,56
2023-03-06T04:23:06.379Z,56
2023-03-06T04:25:08.811Z,56
2023-03-06T04:26:39.152Z,56
2023-03-06T04:28:09.706Z,56
2023-03-06T04:29:40.087Z,56
2023-03-06T04:31:10.438Z,56
2023-03-06T04:32:40.901Z,56
2023-03-06T04:34:11.226Z,56
2023-03-06T04:35:41.696Z,56
2023-03-06T04:37:12.182Z,56
2023-03-06T04:38:42.636Z,56
2023-03-06T04:40:13.018Z,56
2023-03-06T04:41:43.491Z,56
2023-03-06T04:43:45.949Z,56
2023-03-06T04:45:48.414Z,56
2023-03-06T04:47:19.361Z,56
2023-03-06T04:48:49.301Z,56
2023-03-06T04:50:19.734Z,56
2023-03-06T04:51:50.290Z,56
2023-03-06T04:53:52.877Z,56
2023-03-06T04:55:23.164Z,56
2023-03-06T04:56:53.612Z,56
2023-03-06T04:58:24.050Z,56
2023-03-06T05:00:26.477Z,56
2023-03-06T05:01:56.972Z,56
2023-03-06T05:03:27.355Z,56
2023-03-06T05:05:29.822Z,56
2023-03-06T05:07:32.338Z,56
2023-03-06T05:09:02.743Z,56
2023-03-06T05:10:33.190Z,56
2023-03-06T05:12:03.644Z,56
2023-03-06T05:13:34.024Z,56
2023-03-06T05:15:04.522Z,56
2023-03-06T05:16:35.078Z,56
2023-03-06T05:18:05.376Z,56
2023-03-06T05:19:35.660Z,56
2023-03-06T05:21:06.179Z,56
2023-03-06T05:22:36.638Z,56
2023-03-06T05:24:07.111Z,56
2023-03-06T05:26:09.634Z,56
2023-03-06T05:27:40.050Z,56
2023-03-06T05:29:10.465Z,56
2023-03-06T05:30:40.984Z,56
2023-03-06T05:32:11.574Z,56
2023-03-06T05:33:41.787Z,56
2023-03-06T05:35:12.263Z,56
2023-03-06T05:36:42.646Z,56
2023-03-06T05:38:13.216Z,56
2023-03-06T05:39:43.658Z,56
2023-03-06T05:41:14.056Z,56
2023-03-06T05:42:44.448Z,56
2023-03-06T05:44:14.990Z,56
2023-03-06T05:45:45.419Z,56
2023-03-06T05:47:15.941Z,56
2023-03-06T05:48:47.010Z,56
2023-03-06T05:50:48.982Z,56
2023-03-06T05:52:19.539Z,56
2023-03-06T05:53:49.969Z,56
2023-03-06T05:55:20.426Z,56
2023-03-06T05:56:51.018Z,56
2023-03-06T05:58:21.565Z,56
2023-03-06T05:59:51.998Z,56
2023-03-06T06:01:54.457Z,56
2023-03-06T06:03:25.000Z,56
2023-03-06T06:04:55.418Z,55
2023-03-06T06:06:25.919Z,56
2023-03-06T06:08:28.438Z,55
2023-03-06T06:09:58.917Z,55
2023-03-06T06:12:01.321Z,55
2023-03-06T06:13:31.842Z,55
2023-03-06T06:15:02.332Z,55
2023-03-06T06:17:04.833Z,55
2023-03-06T06:18:35.397Z,55
2023-03-06T06:20:05.738Z,55
2023-03-06T06:21:36.223Z,55
2023-03-06T06:23:06.714Z,56
2023-03-06T06:24:37.129Z,55
2023-03-06T06:26:07.536Z,56
2023-03-06T06:28:10.084Z,55
2023-03-06T06:29:40.525Z,55
2023-03-06T06:31:10.982Z,56
2023-03-06T06:32:41.434Z,55
2023-03-06T06:34:11.826Z,56
2023-03-06T06:35:42.320Z,55
2023-03-06T06:37:44.801Z,55
2023-03-06T06:39:15.264Z,55
2023-03-06T06:41:55.192Z,55
2023-03-06T06:42:48.323Z,55
2023-03-06T06:44:18.851Z,56
2023-03-06T06:45:49.690Z,56
2023-03-06T06:47:23.361Z,56
2023-03-06T06:48:50.322Z,56
2023-03-06T06:50:21.225Z,56
2023-03-06T06:51:51.636Z,56
2023-03-06T06:53:22.071Z,56
2023-03-06T06:54:52.456Z,56
2023-03-06T06:56:54.909Z,56
2023-03-06T06:58:25.506Z,56
2023-03-06T06:59:56.137Z,56
2023-03-06T07:01:26.631Z,56
2023-03-06T07:02:57.164Z,56
2023-03-06T07:04:27.479Z,56
2023-03-06T07:05:57.974Z,56
2023-03-06T07:07:28.616Z,56
2023-03-06T07:08:58.872Z,56
2023-03-06T07:10:29.337Z,56
2023-03-06T07:11:59.936Z,56
2023-03-06T07:13:30.414Z,56
2023-03-06T07:15:00.952Z,56
2023-03-06T07:16:31.423Z,56
2023-03-06T07:18:01.884Z,56
2023-03-06T07:19:32.346Z,56
2023-03-06T07:21:02.800Z,56
2023-03-06T07:23:05.285Z,56
2023-03-06T07:24:35.761Z,56
2023-03-06T07:26:06.561Z,56
2023-03-06T07:27:37.151Z,56
2023-03-06T07:29:07.655Z,56
2023-03-06T07:31:10.157Z,56
2023-03-06T07:32:40.770Z,56
2023-03-06T07:34:11.084Z,56
2023-03-06T07:35:41.623Z,56
2023-03-06T07:37:44.108Z,56
2023-03-06T07:39:14.667Z,56
2023-03-06T07:40:49.992Z,56
2023-03-06T07:42:20.568Z,56
2023-03-06T07:43:51.257Z,56
2023-03-06T07:45:21.731Z,56
2023-03-06T07:46:52.154Z,56
2023-03-06T07:48:54.562Z,56
2023-03-06T07:50:25.027Z,56
2023-03-06T07:51:55.429Z,56
2023-03-06T07:53:25.994Z,56
2023-03-06T07:54:56.435Z,56
2023-03-06T07:56:27.016Z,56
2023-03-06T07:57:57.486Z,56
2023-03-06T08:00:00.104Z,56
2023-03-06T08:01:30.539Z,56
2023-03-06T08:03:01.100Z,56
2023-03-06T08:04:31.538Z,56
2023-03-06T08:06:01.860Z,56
2023-03-06T08:07:32.376Z,56
2023-03-06T08:09:02.792Z,56
2023-03-06T08:10:33.216Z,56
2023-03-06T08:12:03.792Z,56
2023-03-06T08:13:34.306Z,56
2023-03-06T08:15:04.781Z,56
2023-03-06T08:16:35.358Z,56
2023-03-06T08:18:05.828Z,56
2023-03-06T08:19:36.293Z,56
2023-03-06T08:21:06.810Z,56
2023-03-06T08:22:37.227Z,56
2023-03-06T08:24:08.584Z,56
2023-03-06T08:25:38.330Z,56
2023-03-06T08:27:08.826Z,56
2023-03-06T08:28:39.328Z,56
2023-03-06T08:30:41.824Z,56
2023-03-06T08:32:12.430Z,56
2023-03-06T08:33:42.891Z,56
2023-03-06T08:35:13.345Z,56
2023-03-06T08:36:43.806Z,56
2023-03-06T08:38:14.261Z,56
2023-03-06T08:39:44.833Z,56
2023-03-06T08:41:15.196Z,56
2023-03-06T08:42:45.758Z,56
2023-03-06T08:44:16.068Z,56
2023-03-06T08:45:46.702Z,56
2023-03-06T08:47:17.066Z,56
2023-03-06T08:48:47.538Z,56
2023-03-06T08:50:18.090Z,56
2023-03-06T08:51:48.523Z,56
2023-03-06T08:53:18.847Z,56
2023-03-06T08:54:49.347Z,56
2023-03-06T08:56:19.780Z,56
2023-03-06T08:58:22.654Z,56
2023-03-06T08:59:53.141Z,56
2023-03-06T09:01:23.606Z,56
2023-03-06T09:02:54.046Z,56
2023-03-06T09:04:24.374Z,56
2023-03-06T09:05:54.813Z,56
2023-03-06T09:07:25.346Z,56
2023-03-06T09:08:55.668Z,56
2023-03-06T09:10:26.059Z,56
2023-03-06T09:12:30.690Z,56
2023-03-06T09:14:31.081Z,56
2023-03-06T09:16:01.391Z,56
2023-03-06T09:17:31.704Z,56
2023-03-06T09:19:02.171Z,56
2023-03-06T09:21:04.601Z,56
2023-03-06T09:22:35.092Z,56
2023-03-06T09:24:05.498Z,56
2023-03-06T09:26:08.018Z,56
2023-03-06T09:27:38.410Z,56
2023-03-06T09:29:08.844Z,56
2023-03-06T09:30:39.342Z,56
2023-03-06T09:32:41.877Z,56
2023-03-06T09:34:12.207Z,56
2023-03-06T09:35:42.729Z,56
2023-03-06T09:37:45.048Z,56
2023-03-06T09:39:15.711Z,56
2023-03-06T09:40:51.110Z,56
2023-03-06T09:42:21.546Z,56
2023-03-06T09:43:51.921Z,56
2023-03-06T09:45:22.515Z,56
2023-03-06T09:46:52.794Z,56
2023-03-06T09:48:23.327Z,56
2023-03-06T09:49:53.774Z,56
2023-03-06T09:51:24.301Z,56
2023-03-06T09:52:54.762Z,56
2023-03-06T09:54:25.101Z,56
2023-03-06T09:55:55.458Z,56
2023-03-06T09:57:58.065Z,56
2023-03-06T09:59:28.562Z,56
2023-03-06T10:00:59.062Z,56
2023-03-06T10:02:29.621Z,56
2023-03-06T10:04:32.068Z,56
2023-03-06T10:06:02.872Z,56
2023-03-06T10:07:32.969Z,56
2023-03-06T10:09:03.503Z,56
2023-03-06T10:10:33.838Z,56
2023-03-06T10:12:36.201Z,56
2023-03-06T10:14:06.768Z,56
2023-03-06T10:15:37.225Z,56
2023-03-06T10:17:07.654Z,56
2023-03-06T10:18:37.938Z,56
2023-03-06T10:20:08.318Z,56
2023-03-06T10:22:10.865Z,57
2023-03-06T10:23:41.394Z,56
2023-03-06T10:25:11.806Z,56
2023-03-06T10:26:42.390Z,56
2023-03-06T10:28:44.751Z,56
2023-03-06T10:30:15.306Z,56
2023-03-06T10:31:45.704Z,56
2023-03-06T10:33:16.244Z,56
2023-03-06T10:34:46.742Z,56
2023-03-06T10:36:17.415Z,57
2023-03-06T10:37:47.951Z,57
2023-03-06T10:39:18.524Z,57
2023-03-06T10:40:49.171Z,57
2023-03-06T10:42:19.580Z,57
2023-03-06T10:43:50.042Z,57
2023-03-06T10:45:20.459Z,57
2023-03-06T10:46:50.834Z,57
2023-03-06T10:48:21.143Z,57
2023-03-06T10:49:51.451Z,57
2023-03-06T10:51:22.048Z,57
2023-03-06T10:52:52.406Z,57
2023-03-06T10:54:22.948Z,57
2023-03-06T10:55:53.293Z,57
2023-03-06T10:57:23.630Z,57
2023-03-06T10:58:54.056Z,56
2023-03-06T11:00:24.511Z,57
2023-03-06T11:02:26.947Z,57
2023-03-06T11:03:57.485Z,56
2023-03-06T11:05:27.950Z,57
2023-03-06T11:06:58.454Z,57
2023-03-06T11:08:28.911Z,57
2023-03-06T11:09:59.272Z,57
2023-03-06T11:11:37.355Z,57
2023-03-06T11:12:59.945Z,57
2023-03-06T11:14:30.461Z,57
2023-03-06T11:16:00.758Z,57
2023-03-06T11:17:31.163Z,57
2023-03-06T11:19:01.702Z,57
2023-03-06T11:20:44.867Z,57
2023-03-06T11:22:02.627Z,57
2023-03-06T11:23:33.296Z,57
2023-03-06T11:25:35.679Z,57
2023-03-06T11:27:06.066Z,57
2023-03-06T11:28:36.457Z,57
2023-03-06T11:30:06.757Z,57
2023-03-06T11:31:37.153Z,57
2023-03-06T11:33:07.338Z,57
2023-03-06T11:34:37.717Z,57
2023-03-06T11:36:08.181Z,57
2023-03-06T11:37:38.472Z,57
2023-03-06T11:39:08.961Z,57
2023-03-06T11:40:39.602Z,57
2023-03-06T11:42:10.055Z,57
2023-03-06T11:43:40.408Z,57
2023-03-06T11:45:10.841Z,57
2023-03-06T11:47:13.284Z,57
2023-03-06T11:48:43.443Z,57
2023-03-06T11:50:13.999Z,57
2023-03-06T11:51:44.429Z,57
2023-03-06T11:53:14.823Z,57
2023-03-06T11:54:45.052Z,57
2023-03-06T11:56:15.580Z,57
2023-03-06T11:57:46.128Z,57
2023-03-06T11:59:16.586Z,57
2023-03-06T12:00:47.148Z,57
2023-03-06T12:02:17.583Z,57
2023-03-06T12:03:47.860Z,57
2023-03-06T12:05:18.374Z,57
2023-03-06T12:06:48.601Z,57
2023-03-06T12:08:19.123Z,57
2023-03-06T12:10:21.475Z,57
2023-03-06T12:11:52.073Z,57
2023-03-06T12:13:22.447Z,57
2023-03-06T12:14:53.026Z,57
2023-03-06T12:16:23.479Z,57
2023-03-06T12:18:25.915Z,57
2023-03-06T12:20:28.396Z,57
2023-03-06T12:22:31.253Z,57
2023-03-06T12:24:33.460Z,57
2023-03-06T12:26:03.750Z,57
2023-03-06T12:27:34.122Z,57
2023-03-06T12:29:04.489Z,57
2023-03-06T12:30:34.750Z,57
2023-03-06T12:32:05.425Z,57
2023-03-06T12:33:35.760Z,57
2023-03-06T12:35:38.495Z,57
2023-03-06T12:37:08.688Z,57
2023-03-06T12:38:39.285Z,57
2023-03-06T12:40:41.762Z,57
2023-03-06T12:42:22.540Z,57
2023-03-06T12:43:42.717Z,57
2023-03-06T12:45:13.104Z,57
2023-03-06T12:46:43.669Z,57
2023-03-06T12:48:14.016Z,57
2023-03-06T12:49:46.034Z,57
2023-03-06T12:51:14.766Z,57
2023-03-06T12:52:45.081Z,57
2023-03-06T12:54:15.426Z,57
2023-03-06T12:55:45.942Z,57
2023-03-06T12:57:16.370Z,57
2023-03-06T12:58:46.728Z,57
2023-03-06T13:00:17.182Z,58
2023-03-06T13:01:47.743Z,57
2023-03-06T13:03:50.193Z,57
2023-03-06T13:05:20.643Z,59
2023-03-06T13:07:23.043Z,58
2023-03-06T13:08:53.493Z,58
2023-03-06T13:10:23.752Z,57
2023-03-06T13:11:54.247Z,62
2023-03-06T13:13:56.823Z,59
2023-03-06T13:15:27.321Z,59
2023-03-06T13:16:57.777Z,59
2023-03-06T13:18:28.225Z,60
2023-03-06T13:20:30.752Z,58
2023-03-06T13:22:01.218Z,58
2023-03-06T13:23:31.574Z,58
2023-03-06T13:25:08.103Z,58
2023-03-06T13:26:32.530Z,58
2023-03-06T13:28:35.041Z,57
2023-03-06T13:30:05.515Z,57
2023-03-06T13:31:36.159Z,57
2023-03-06T13:33:06.560Z,57
2023-03-06T13:34:37.047Z,57
2023-03-06T13:36:39.952Z,60
2023-03-06T13:38:09.976Z,59
2023-03-06T13:39:40.460Z,61
2023-03-06T13:41:10.927Z,66
2023-03-06T13:42:41.252Z,61
2023-03-06T13:44:11.704Z,58
2023-03-06T13:46:14.156Z,56
2023-03-06T13:48:21.328Z,56
2023-03-06T13:49:15.092Z,56
2023-03-06T13:50:45.511Z,56
2023-03-06T13:52:16.019Z,56
2023-03-06T13:53:46.460Z,56
2023-03-06T13:55:16.999Z,56
2023-03-06T13:56:47.343Z,56
2023-03-06T13:58:17.799Z,57
2023-03-06T13:59:50.482Z,56
2023-03-06T14:01:18.644Z,57
2023-03-06T14:02:49.184Z,57
2023-03-06T14:04:19.604Z,57
2023-03-06T14:05:50.145Z,57
2023-03-06T14:07:20.671Z,57
2023-03-06T14:08:51.010Z,57
2023-03-06T14:10:53.512Z,57
2023-03-06T14:12:24.015Z,57
2023-03-06T14:14:26.629Z,57
2023-03-06T14:15:57.107Z,57
2023-03-06T14:17:59.832Z,57
2023-03-06T14:19:30.213Z,57
2023-03-06T14:21:32.582Z,57
2023-03-06T14:23:03.060Z,57
2023-03-06T14:24:33.561Z,57
2023-03-06T14:26:04.044Z,57
2023-03-06T14:27:34.442Z,57
2023-03-06T14:29:04.855Z,57
2023-03-06T14:30:35.382Z,57
2023-03-06T14:32:05.794Z,57
2023-03-06T14:34:08.331Z,57
2023-03-06T14:36:10.844Z,57
2023-03-06T14:37:41.240Z,57
2023-03-06T14:39:11.712Z,57
2023-03-06T14:41:14.358Z,57
2023-03-06T14:42:44.900Z,57
2023-03-06T14:44:47.414Z,57
2023-03-06T14:46:17.827Z,57
2023-03-06T14:47:48.331Z,57
2023-03-06T14:49:18.623Z,57
2023-03-06T14:50:49.263Z,57
2023-03-06T14:52:51.728Z,57
2023-03-06T14:54:22.268Z,57
2023-03-06T14:56:24.791Z,57
2023-03-06T14:57:55.256Z,57
2023-03-06T14:59:25.661Z,57
2023-03-06T15:00:56.254Z,57
2023-03-06T15:02:26.708Z,57
2023-03-06T15:04:29.108Z,57
2023-03-06T15:05:59.561Z,57
2023-03-06T15:07:30.049Z,57
2023-03-06T15:09:00.544Z,57
2023-03-06T15:10:31.222Z,57
2023-03-06T15:12:01.670Z,57
2023-03-06T15:13:32.194Z,57
2023-03-06T15:15:02.639Z,57
2023-03-06T15:16:33.197Z,57
2023-03-06T15:18:03.573Z,57
2023-03-06T15:20:06.080Z,57
2023-03-06T15:21:36.646Z,57
2023-03-06T15:23:07.126Z,57
2023-03-06T15:24:37.640Z,57
2023-03-06T15:26:08.262Z,57
2023-03-06T15:27:38.663Z,57
2023-03-06T15:29:10.143Z,57
2023-03-06T15:30:39.532Z,57
2023-03-06T15:32:10.081Z,57
2023-03-06T15:33:40.534Z,57
2023-03-06T15:35:10.956Z,57
2023-03-06T15:36:41.539Z,57
2023-03-06T15:38:43.939Z,57
2023-03-06T15:40:14.410Z,57
2023-03-06T15:42:17.084Z,57
2023-03-06T15:43:47.598Z,57
2023-03-06T15:45:17.934Z,57
2023-03-06T15:46:49.947Z,57
2023-03-06T15:48:18.906Z,57
2023-03-06T15:49:49.351Z,57
2023-03-06T15:51:19.785Z,57
2023-03-06T15:52:50.321Z,57
2023-03-06T15:54:20.698Z,57
2023-03-06T15:55:51.468Z,57
2023-03-06T15:57:22.042Z,57
2023-03-06T15:58:52.582Z,57
2023-03-06T16:00:55.117Z,57
2023-03-06T16:02:25.533Z,57
2023-03-06T16:03:56.018Z,57
2023-03-06T16:05:26.459Z,57
2023-03-06T16:06:56.966Z,57
2023-03-06T16:08:27.453Z,57
2023-03-06T16:09:57.872Z,57
2023-03-06T16:11:35.295Z,57
2023-03-06T16:12:58.863Z,57
2023-03-06T16:14:29.263Z,57
2023-03-06T16:15:59.855Z,57
2023-03-06T16:17:30.364Z,57
2023-03-06T16:19:01.107Z,57
2023-03-06T16:20:31.527Z,57
2023-03-06T16:22:02.017Z,57
2023-03-06T16:23:32.356Z,57
2023-03-06T16:25:03.043Z,57
2023-03-06T16:26:33.387Z,57
2023-03-06T16:28:03.841Z,57
2023-03-06T16:30:06.259Z,57
2023-03-06T16:31:36.780Z,57
2023-03-06T16:33:07.197Z,57
2023-03-06T16:34:37.649Z,57
2023-03-06T16:36:08.170Z,57
2023-03-06T16:37:38.619Z,57
2023-03-06T16:39:09.056Z,57
2023-03-06T16:40:39.457Z,57
2023-03-06T16:42:09.910Z,57
2023-03-06T16:43:40.383Z,57
2023-03-06T16:45:43.037Z,57
2023-03-06T16:47:13.225Z,57
2023-03-06T16:48:43.739Z,57
2023-03-06T16:50:14.120Z,57
2023-03-06T16:51:44.722Z,57
2023-03-06T16:53:47.261Z,57
2023-03-06T16:55:17.774Z,57
2023-03-06T16:56:48.268Z,57
2023-03-06T16:58:18.690Z,57
2023-03-06T16:59:49.241Z,57
2023-03-06T17:01:19.764Z,57
2023-03-06T17:02:50.594Z,57
2023-03-06T17:04:20.907Z,57
2023-03-06T17:06:23.258Z,57
2023-03-06T17:07:53.825Z,57
2023-03-06T17:09:24.240Z,57
2023-03-06T17:10:54.717Z,57
2023-03-06T17:12:25.290Z,57
2023-03-06T17:13:55.780Z,57
2023-03-06T17:15:26.298Z,57
2023-03-06T17:17:28.815Z,57
2023-03-06T17:18:59.391Z,57
2023-03-06T17:20:29.918Z,57
2023-03-06T17:22:00.281Z,57
2023-03-06T17:23:30.651Z,57
2023-03-06T17:25:01.120Z,57
2023-03-06T17:26:31.545Z,57
2023-03-06T17:28:33.867Z,57
2023-03-06T17:30:04.236Z,57
2023-03-06T17:31:34.832Z,57
2023-03-06T17:33:05.343Z,57
2023-03-06T17:34:35.785Z,57
2023-03-06T17:36:06.119Z,57
2023-03-06T17:37:36.518Z,57
2023-03-06T17:39:39.043Z,57
2023-03-06T17:41:09.537Z,57
2023-03-06T17:42:39.906Z,57
2023-03-06T17:44:10.278Z,57
2023-03-06T17:45:40.771Z,57
2023-03-06T17:47:11.226Z,57
2023-03-06T17:49:13.767Z,57
2023-03-06T17:50:44.220Z,57
2023-03-06T17:52:14.635Z,57
2023-03-06T17:53:45.158Z,57
2023-03-06T17:55:15.716Z,57
2023-03-06T17:56:46.052Z,57
2023-03-06T17:58:16.654Z,57
2023-03-06T17:59:46.843Z,57
2023-03-06T18:01:17.126Z,57
2023-03-06T18:02:47.582Z,57
2023-03-06T18:04:17.895Z,57
2023-03-06T18:05:48.304Z,57
2023-03-06T18:07:18.732Z,57
2023-03-06T18:08:50.998Z,57
2023-03-06T18:10:19.467Z,57
2023-03-06T18:11:49.903Z,57
2023-03-06T18:13:20.360Z,57
2023-03-06T18:15:22.787Z,57
2023-03-06T18:16:53.223Z,57
2023-03-06T18:18:23.668Z,57
2023-03-06T18:20:26.093Z,57
2023-03-06T18:21:56.519Z,57
2023-03-06T18:23:27.000Z,57
2023-03-06T18:24:57.324Z,57
2023-03-06T18:26:27.674Z,57
2023-03-06T18:27:57.990Z,57
2023-03-06T18:29:28.416Z,57
2023-03-06T18:30:58.794Z,57
2023-03-06T18:32:29.309Z,57
2023-03-06T18:33:59.737Z,57
2023-03-06T18:36:02.124Z,57
2023-03-06T18:37:32.552Z,57
2023-03-06T18:39:02.915Z,57
2023-03-06T18:41:05.343Z,57
2023-03-06T18:42:35.731Z,57
2023-03-06T18:44:06.105Z,57
2023-03-06T18:45:36.562Z,57
2023-03-06T18:47:06.941Z,57
2023-03-06T18:48:37.385Z,57
2023-03-06T18:50:39.825Z,57
2023-03-06T18:52:10.226Z,57
2023-03-06T18:53:40.658Z,57
2023-03-06T18:55:11.094Z,57
2023-03-06T18:56:41.472Z,57
2023-03-06T18:58:11.803Z,57
2023-03-06T18:59:42.154Z,57
2023-03-06T19:01:12.679Z,57
2023-03-06T19:02:43.080Z,57
2023-03-06T19:04:13.560Z,57
2023-03-06T19:06:15.975Z,57
2023-03-06T19:07:46.387Z,57
2023-03-06T19:09:16.701Z,57
2023-03-06T19:10:47.120Z,57
2023-03-06T19:12:17.548Z,57
2023-03-06T19:13:47.981Z,57
2023-03-06T19:15:50.420Z,57
2023-03-06T19:17:20.767Z,57
2023-03-06T19:18:51.107Z,57
2023-03-06T19:20:21.450Z,57
2023-03-06T19:21:51.940Z,57
2023-03-06T19:23:22.316Z,57
2023-03-06T19:24:52.793Z,57
2023-03-06T19:26:55.224Z,57
2023-03-06T19:28:25.610Z,57
2023-03-06T19:29:56.091Z,57
2023-03-06T19:31:58.547Z,57
2023-03-06T19:33:28.943Z,57
2023-03-06T19:34:59.416Z,57
2023-03-06T19:37:01.832Z,57
2023-03-06T19:38:32.255Z,57
2023-03-06T19:40:02.736Z,57
2023-03-06T19:41:33.085Z,57
2023-03-06T19:43:03.518Z,57
2023-03-06T19:44:33.940Z,57
2023-03-06T19:46:04.408Z,57
2023-03-06T19:47:34.767Z,57
2023-03-06T19:49:05.160Z,57
2023-03-06T19:50:35.484Z,57
2023-03-06T19:52:05.941Z,57
2023-03-06T19:53:36.342Z,57
2023-03-06T19:55:06.806Z,57
2023-03-06T19:57:09.203Z,57
2023-03-06T19:58:39.665Z,57
2023-03-06T20:00:10.083Z,57
2023-03-06T20:01:40.544Z,57
2023-03-06T20:03:10.919Z,57
2023-03-06T20:04:41.548Z,57
2023-03-06T20:06:11.942Z,57
2023-03-06T20:07:42.391Z,57
2023-03-06T20:09:12.818Z,57
2023-03-06T20:10:43.174Z,57
2023-03-06T20:12:13.497Z,57
2023-03-06T20:13:47.274Z,57
2023-03-06T20:15:14.582Z,57
2023-03-06T20:16:45.008Z,57
2023-03-06T20:18:15.431Z,57
2023-03-06T20:19:45.836Z,57
2023-03-06T20:21:16.253Z,57
2023-03-06T20:22:46.663Z,57
2023-03-06T20:24:17.081Z,57
2023-03-06T20:25:47.533Z,57
2023-03-06T20:27:49.953Z,57
2023-03-06T20:29:20.395Z,57
2023-03-06T20:30:50.829Z,57
2023-03-06T20:32:21.223Z,57
2023-03-06T20:33:51.623Z,57
2023-03-06T20:35:22.041Z,57
2023-03-06T20:37:24.424Z,57
2023-03-06T20:38:54.846Z,57
2023-03-06T20:40:25.207Z,57
2023-03-06T20:42:27.641Z,57
2023-03-06T20:43:58.064Z,57
2023-03-06T20:45:28.540Z,57
2023-03-06T20:47:30.952Z,57
2023-03-06T20:49:01.366Z,57
2023-03-06T20:50:31.845Z,57
2023-03-06T20:52:34.284Z,57
2023-03-06T20:54:04.685Z,57
2023-03-06T20:55:35.152Z,57
2023-03-06T20:57:37.603Z,57
2023-03-06T20:59:07.977Z,57
2023-03-06T21:00:38.366Z,57
2023-03-06T21:02:40.754Z,57
2023-03-06T21:04:11.191Z,57
2023-03-06T21:05:41.673Z,57
2023-03-06T21:07:12.000Z,57
2023-03-06T21:08:42.320Z,57
2023-03-06T21:10:12.787Z,57
2023-03-06T21:11:43.153Z,57
2023-03-06T21:13:45.544Z,57
2023-03-06T21:15:15.951Z,57
2023-03-06T21:16:46.290Z,57
2023-03-06T21:18:16.702Z,57
2023-03-06T21:19:47.132Z,57
2023-03-06T21:21:17.579Z,57
2023-03-06T21:22:47.982Z,57
2023-03-06T21:24:20.340Z,57
2023-03-06T21:25:48.813Z,57
2023-03-06T21:27:19.089Z,57
2023-03-06T21:28:49.513Z,57
2023-03-06T21:30:19.840Z,57
2023-03-06T21:31:50.362Z,57
2023-03-06T21:33:20.715Z,57
2023-03-06T21:34:51.144Z,57
2023-03-06T21:36:21.662Z,57
2023-03-06T21:38:24.014Z,57
2023-03-06T21:39:54.428Z,57
2023-03-06T21:41:24.948Z,57
2023-03-06T21:43:27.306Z,57
2023-03-06T21:44:57.762Z,57
2023-03-06T21:46:28.234Z,57
2023-03-06T21:47:58.569Z,57
2023-03-06T21:49:29.000Z,57
2023-03-06T21:50:59.637Z,57
2023-03-06T21:52:30.062Z,57
2023-03-06T21:54:00.449Z,57
2023-03-06T21:55:30.932Z,57
2023-03-06T21:57:01.388Z,57
2023-03-06T21:58:31.753Z,57
2023-03-06T22:00:02.161Z,57
2023-03-06T22:01:32.640Z,57
2023-03-06T22:03:02.999Z,57
2023-03-06T22:04:33.515Z,57
2023-03-06T22:06:03.883Z,57
2023-03-06T22:08:06.302Z,57
2023-03-06T22:09:36.743Z,57
2023-03-06T22:11:07.448Z,57
2023-03-06T22:12:37.882Z,57
2023-03-06T22:14:08.275Z,57
2023-03-06T22:15:38.699Z,57
2023-03-06T22:17:09.165Z,57
2023-03-06T22:19:11.583Z,57
2023-03-06T22:20:41.996Z,57
2023-03-06T22:22:12.373Z,57
2023-03-06T22:24:14.801Z,57
2023-03-06T22:25:45.192Z,57
2023-03-06T22:27:15.555Z,56
2023-03-06T22:28:46.010Z,57
2023-03-06T22:30:16.247Z,57
2023-03-06T22:31:46.750Z,57